createdAt,value
2022-11-21T00:00:39.907Z,0.59
2022-11-21T00:03:06.425Z,0.68
2022-11-21T00:05:33.137Z,0.70
2022-11-21T00:07:59.678Z,0.62
2022-11-21T00:10:26.296Z,0.64
2022-11-21T00:12:56.725Z,0.68
2022-11-21T00:15:24.789Z,0.65
2022-11-21T00:17:51.693Z,0.64
2022-11-21T00:20:19.461Z,0.51
2022-11-21T00:22:46.283Z,0.48
2022-11-21T00:25:13.162Z,0.56
2022-11-21T00:27:39.882Z,0.66
2022-11-21T00:30:08.437Z,0.69
2022-11-21T00:32:34.965Z,0.59
2022-11-21T00:35:01.454Z,0.64
2022-11-21T00:37:28.091Z,0.83
2022-11-21T00:39:54.530Z,0.78
2022-11-21T00:42:20.987Z,0.73
2022-11-21T00:44:47.514Z,0.79
2022-11-21T00:47:14.039Z,0.75
2022-11-21T00:49:40.501Z,0.76
2022-11-21T00:52:06.974Z,0.54
2022-11-21T00:54:33.448Z,0.69
2022-11-21T00:57:00.105Z,0.65
2022-11-21T00:59:26.576Z,0.55
2022-11-21T01:01:53.031Z,0.71
2022-11-21T01:04:19.633Z,0.73
2022-11-21T01:06:46.153Z,0.72
2022-11-21T01:09:12.605Z,0.78
2022-11-21T01:11:39.045Z,0.94
2022-11-21T01:14:05.557Z,0.96
2022-11-21T01:16:32.230Z,1.02
2022-11-21T01:18:58.743Z,0.98
2022-11-21T01:21:30.267Z,0.98
2022-11-21T01:23:59.168Z,0.66
2022-11-21T01:26:28.018Z,0.78
2022-11-21T01:28:54.999Z,1.01
2022-11-21T01:31:23.638Z,0.99
2022-11-21T01:33:50.087Z,0.97
2022-11-21T01:36:18.959Z,0.96
2022-11-21T01:38:47.458Z,0.96
2022-11-21T01:41:16.733Z,0.90
2022-11-21T01:43:43.199Z,0.88
2022-11-21T01:46:09.538Z,0.67
2022-11-21T01:48:55.971Z,0.64
2022-11-21T01:51:32.451Z,0.85
2022-11-21T01:54:00.384Z,0.91
2022-11-21T01:56:28.983Z,0.96
2022-11-21T01:58:57.398Z,1.03
2022-11-21T02:01:24.198Z,0.88
2022-11-21T02:03:51.289Z,0.84
2022-11-21T02:06:17.764Z,0.64
2022-11-21T02:08:45.283Z,0.23
2022-11-21T02:11:26.054Z,0.02
2022-11-21T02:13:52.879Z,0.03
2022-11-21T02:16:19.320Z,-0.03
2022-11-21T02:18:45.885Z,-0.09
2022-11-21T02:21:50.888Z,-0.17
2022-11-21T02:24:23.506Z,-0.18
2022-11-21T02:26:50.226Z,-0.05
2022-11-21T02:29:17.040Z,0.13
2022-11-21T02:31:43.476Z,-0.15
2022-11-21T02:34:09.945Z,-0.20
2022-11-21T02:37:02.672Z,-0.19
2022-11-21T02:39:34.313Z,-0.01
2022-11-21T02:42:27.967Z,0.28
2022-11-21T02:45:18.770Z,0.50
2022-11-21T02:47:45.309Z,0.54
2022-11-21T02:50:27.561Z,0.54
2022-11-21T02:52:55.375Z,0.46
2022-11-21T02:55:22.915Z,0.51
2022-11-21T02:57:49.426Z,0.40
2022-11-21T03:00:16.293Z,0.19
2022-11-21T03:02:42.833Z,0.26
2022-11-21T03:05:11.494Z,0.59
2022-11-21T03:07:38.152Z,0.23
2022-11-21T03:10:05.273Z,-0.03
2022-11-21T03:12:31.752Z,-0.23
2022-11-21T03:14:58.209Z,-0.27
2022-11-21T03:17:24.668Z,-0.29
2022-11-21T03:19:51.127Z,-0.24
2022-11-21T03:22:17.574Z,-0.12
2022-11-21T03:24:44.042Z,-0.18
2022-11-21T03:27:10.500Z,-0.30
2022-11-21T03:29:36.951Z,-0.23
2022-11-21T03:32:03.453Z,-0.09
2022-11-21T03:34:30.200Z,-0.06
2022-11-21T03:36:56.778Z,-0.03
2022-11-21T03:39:23.229Z,-0.06
2022-11-21T03:41:49.732Z,-0.12
2022-11-21T03:44:16.244Z,-0.14
2022-11-21T03:46:44.266Z,-0.08
2022-11-21T03:49:11.299Z,-0.18
2022-11-21T03:51:37.967Z,-0.34
2022-11-21T03:54:04.733Z,-0.22
2022-11-21T03:56:31.220Z,-0.09
2022-11-21T03:58:57.694Z,-0.09
2022-11-21T04:01:24.317Z,0.13
2022-11-21T04:03:51.251Z,0.01
2022-11-21T04:06:19.636Z,0.16
2022-11-21T04:08:46.485Z,0.03
2022-11-21T04:11:13.281Z,0.05
2022-11-21T04:13:39.788Z,-0.04
2022-11-21T04:16:06.391Z,0.06
2022-11-21T04:18:34.128Z,0.01
2022-11-21T04:21:02.966Z,-0.13
2022-11-21T04:23:29.553Z,0.04
2022-11-21T04:25:56.006Z,-0.04
2022-11-21T04:28:22.454Z,0.04
2022-11-21T04:30:49.060Z,0.03
2022-11-21T04:33:17.100Z,0.06
2022-11-21T04:35:44.353Z,0.15
2022-11-21T04:38:11.495Z,0.18
2022-11-21T04:40:38.283Z,0.49
2022-11-21T04:43:04.818Z,0.58
2022-11-21T04:45:31.679Z,0.57
2022-11-21T04:47:58.261Z,0.40
2022-11-21T04:50:24.776Z,0.37
2022-11-21T04:52:52.117Z,0.35
2022-11-21T04:55:19.451Z,0.52
2022-11-21T04:57:46.328Z,0.53
2022-11-21T05:00:14.291Z,0.59
2022-11-21T05:02:40.807Z,0.64
2022-11-21T05:05:07.460Z,0.78
2022-11-21T05:07:33.966Z,0.75
2022-11-21T05:10:00.503Z,0.71
2022-11-21T05:12:45.597Z,0.87
2022-11-21T05:15:12.058Z,0.81
2022-11-21T05:17:38.674Z,0.95
2022-11-21T05:20:05.599Z,1.09
2022-11-21T05:22:32.045Z,1.04
2022-11-21T05:24:58.574Z,1.00
2022-11-21T05:27:25.037Z,1.09
2022-11-21T05:29:51.506Z,1.18
2022-11-21T05:32:17.968Z,1.35
2022-11-21T05:34:44.523Z,1.37
2022-11-21T05:37:10.969Z,1.31
2022-11-21T05:39:37.438Z,1.26
2022-11-21T05:42:04.062Z,1.33
2022-11-21T05:44:30.948Z,1.35
2022-11-21T05:46:57.561Z,1.30
2022-11-21T05:49:24.055Z,1.45
2022-11-21T05:51:50.524Z,1.51
2022-11-21T05:54:17.290Z,1.42
2022-11-21T05:56:43.740Z,1.52
2022-11-21T05:59:13.288Z,1.64
2022-11-21T06:01:58.345Z,1.65
2022-11-21T06:04:24.958Z,1.68
2022-11-21T06:06:51.533Z,1.80
2022-11-21T06:09:17.985Z,1.82
2022-11-21T06:11:44.453Z,1.94
2022-11-21T06:14:11.013Z,1.98
2022-11-21T06:16:37.612Z,1.85
2022-11-21T06:19:04.117Z,1.86
2022-11-21T06:21:30.592Z,1.92
2022-11-21T06:23:58.165Z,1.97
2022-11-21T06:26:26.199Z,1.94
2022-11-21T06:28:53.022Z,2.05
2022-11-21T06:31:24.633Z,2.19
2022-11-21T06:33:55.674Z,2.25
2022-11-21T06:36:22.225Z,2.29
2022-11-21T06:38:48.910Z,2.28
2022-11-21T06:41:20.393Z,2.38
2022-11-21T06:43:46.917Z,2.41
2022-11-21T06:46:14.247Z,2.30
2022-11-21T06:48:41.491Z,2.61
2022-11-21T06:51:11.866Z,2.72
2022-11-21T06:53:38.348Z,2.69
2022-11-21T06:56:05.166Z,2.67
2022-11-21T06:58:31.803Z,2.64
2022-11-21T07:00:58.610Z,2.59
2022-11-21T07:03:25.063Z,2.60
2022-11-21T07:05:52.522Z,2.75
2022-11-21T07:08:19.004Z,2.74
2022-11-21T07:11:10.195Z,2.76
2022-11-21T07:13:32.464Z,2.83
2022-11-21T07:16:10.169Z,2.68
2022-11-21T07:18:36.967Z,2.82
2022-11-21T07:21:05.399Z,2.89
2022-11-21T07:23:32.812Z,2.69
2022-11-21T07:26:03.866Z,2.96
2022-11-21T07:28:30.755Z,2.93
2022-11-21T07:30:57.793Z,3.02
2022-11-21T07:33:24.347Z,2.75
2022-11-21T07:35:50.826Z,2.66
2022-11-21T07:38:17.302Z,2.62
2022-11-21T07:40:43.840Z,2.75
2022-11-21T07:43:11.173Z,2.79
2022-11-21T07:45:38.046Z,2.95
2022-11-21T07:48:07.154Z,3.00
2022-11-21T07:50:33.918Z,2.92
2022-11-21T07:53:07.827Z,2.83
2022-11-21T07:55:40.183Z,2.72
2022-11-21T07:58:12.838Z,2.82
2022-11-21T08:00:42.563Z,2.51
2022-11-21T08:03:09.129Z,2.58
2022-11-21T08:05:40.075Z,2.65
2022-11-21T08:08:07.055Z,2.47
2022-11-21T08:10:33.861Z,2.49
2022-11-21T08:13:00.346Z,2.48
2022-11-21T08:15:26.805Z,2.40
2022-11-21T08:17:53.269Z,2.78
2022-11-21T08:20:19.750Z,3.05
2022-11-21T08:22:46.228Z,2.96
2022-11-21T08:25:12.750Z,2.93
2022-11-21T08:27:40.079Z,2.97
2022-11-21T08:30:08.169Z,3.15
2022-11-21T08:32:34.739Z,3.14
2022-11-21T08:35:01.321Z,3.26
2022-11-21T08:37:30.994Z,3.31
2022-11-21T08:40:00.970Z,3.32
2022-11-21T08:42:27.707Z,3.35
2022-11-21T08:44:54.159Z,3.29
2022-11-21T08:47:20.767Z,2.97
2022-11-21T08:49:48.119Z,3.27
2022-11-21T08:52:17.155Z,3.39
2022-11-21T08:54:44.521Z,3.46
2022-11-21T08:57:11.210Z,3.44
2022-11-21T08:59:37.721Z,3.58
2022-11-21T09:02:04.302Z,3.70
2022-11-21T09:04:30.898Z,3.56
2022-11-21T09:06:57.491Z,3.32
2022-11-21T09:09:25.587Z,3.40
2022-11-21T09:11:52.344Z,3.31
2022-11-21T09:14:37.225Z,3.19
2022-11-21T09:17:25.026Z,3.22
2022-11-21T09:19:51.490Z,3.30
2022-11-21T09:22:17.964Z,3.22
2022-11-21T09:24:44.405Z,3.34
2022-11-21T09:27:10.858Z,3.20
2022-11-21T09:29:37.311Z,3.35
2022-11-21T09:32:03.768Z,3.40
2022-11-21T09:34:31.739Z,3.25
2022-11-21T09:36:58.344Z,3.34
2022-11-21T09:39:25.218Z,3.30
2022-11-21T09:42:34.274Z,3.24
2022-11-21T09:45:07.008Z,3.29
2022-11-21T09:47:37.026Z,3.32
2022-11-21T09:50:20.725Z,3.33
2022-11-21T09:52:49.620Z,3.51
2022-11-21T09:55:34.446Z,3.30
2022-11-21T09:58:03.455Z,3.34
2022-11-21T10:00:30.417Z,3.32
2022-11-21T10:02:57.375Z,3.33
2022-11-21T10:05:33.617Z,3.35
2022-11-21T10:08:07.417Z,3.44
2022-11-21T10:10:33.815Z,3.45
2022-11-21T10:13:11.147Z,3.68
2022-11-21T10:16:06.820Z,3.56
2022-11-21T10:18:58.295Z,3.49
2022-11-21T10:21:24.620Z,3.48
2022-11-21T10:24:29.058Z,3.55
2022-11-21T10:27:02.480Z,3.66
2022-11-21T10:29:39.102Z,3.78
2022-11-21T10:32:22.922Z,3.50
2022-11-21T10:34:49.305Z,3.55
2022-11-21T10:37:16.587Z,3.58
2022-11-21T10:39:49.512Z,3.47
2022-11-21T10:42:34.678Z,3.46
2022-11-21T10:45:16.214Z,3.41
2022-11-21T10:47:42.733Z,3.41
2022-11-21T10:50:08.945Z,3.46
2022-11-21T10:52:41.222Z,3.43
2022-11-21T10:55:09.204Z,3.59
2022-11-21T10:57:45.156Z,3.59
2022-11-21T11:00:11.396Z,3.52
2022-11-21T11:02:37.943Z,3.59
2022-11-21T11:05:17.794Z,3.91
2022-11-21T11:07:58.939Z,3.68
2022-11-21T11:10:27.940Z,3.78
2022-11-21T11:13:44.031Z,3.76
2022-11-21T11:16:19.546Z,3.71
2022-11-21T11:19:03.042Z,3.80
2022-11-21T11:21:30.254Z,3.47
2022-11-21T11:24:07.133Z,3.50
2022-11-21T11:26:33.431Z,3.79
2022-11-21T11:29:15.415Z,3.76
2022-11-21T11:31:42.708Z,3.89
2022-11-21T11:34:11.796Z,4.03
2022-11-21T11:36:44.437Z,3.89
2022-11-21T11:39:14.319Z,3.76
2022-11-21T11:42:16.637Z,3.93
2022-11-21T11:45:06.024Z,4.09
2022-11-21T11:47:33.747Z,4.20
2022-11-21T11:50:26.325Z,4.37
2022-11-21T11:52:55.986Z,4.46
2022-11-21T11:55:28.193Z,4.42
2022-11-21T11:57:56.516Z,4.30
2022-11-21T12:00:46.043Z,4.16
2022-11-21T12:03:12.455Z,4.15
2022-11-21T12:05:40.002Z,4.26
2022-11-21T12:08:41.540Z,4.27
2022-11-21T12:11:43.635Z,4.23
2022-11-21T12:14:42.804Z,4.24
2022-11-21T12:17:09.138Z,3.98
2022-11-21T12:19:36.264Z,3.96
2022-11-21T12:22:06.333Z,4.37
2022-11-21T12:24:36.072Z,4.37
2022-11-21T12:27:11.470Z,4.23
2022-11-21T12:29:48.593Z,4.22
2022-11-21T12:32:15.024Z,4.22
2022-11-21T12:34:41.284Z,4.29
2022-11-21T12:37:16.701Z,4.22
2022-11-21T12:39:49.883Z,4.30
2022-11-21T12:42:50.320Z,4.40
2022-11-21T12:45:28.602Z,4.33
2022-11-21T12:48:19.910Z,4.47
2022-11-21T12:51:04.777Z,4.45
2022-11-21T12:53:59.167Z,4.55
2022-11-21T12:56:38.885Z,4.57
2022-11-21T12:59:05.262Z,4.58
2022-11-21T13:01:35.724Z,4.45
2022-11-21T13:04:03.036Z,4.68
2022-11-21T13:06:30.309Z,4.69
2022-11-21T13:08:57.018Z,5.04
2022-11-21T13:11:48.281Z,4.79
2022-11-21T13:14:19.143Z,5.21
2022-11-21T13:16:48.463Z,5.15
2022-11-21T13:19:17.193Z,4.95
2022-11-21T13:21:50.093Z,4.81
2022-11-21T13:24:35.239Z,4.90
2022-11-21T13:27:04.403Z,5.26
2022-11-21T13:29:31.144Z,5.27
2022-11-21T13:31:57.596Z,5.35
2022-11-21T13:34:37.379Z,5.29
2022-11-21T13:37:04.593Z,5.08
2022-11-21T13:39:32.827Z,5.09
2022-11-21T13:42:24.509Z,4.72
2022-11-21T13:44:51.056Z,4.77
2022-11-21T13:47:26.550Z,4.15
2022-11-21T13:49:59.078Z,4.39
2022-11-21T13:52:44.143Z,4.33
2022-11-21T13:55:13.450Z,4.59
2022-11-21T13:57:59.947Z,4.65
2022-11-21T14:00:42.814Z,4.83
2022-11-21T14:03:29.093Z,4.62
2022-11-21T14:06:15.716Z,4.32
2022-11-21T14:08:43.689Z,4.13
2022-11-21T14:11:20.061Z,4.47
2022-11-21T14:13:47.080Z,4.52
2022-11-21T14:16:28.551Z,4.47
2022-11-21T14:18:54.860Z,4.35
2022-11-21T14:21:22.165Z,4.55
2022-11-21T14:23:48.566Z,4.40
2022-11-21T14:26:16.002Z,4.29
2022-11-21T14:28:42.302Z,4.63
2022-11-21T14:31:09.352Z,4.53
2022-11-21T14:33:36.395Z,4.67
2022-11-21T14:36:05.854Z,4.71
2022-11-21T14:38:40.330Z,4.81
2022-11-21T14:41:22.801Z,4.69
2022-11-21T14:43:49.211Z,4.86
2022-11-21T14:46:16.380Z,4.72
2022-11-21T14:48:42.786Z,4.62
2022-11-21T14:51:09.133Z,4.72
2022-11-21T14:53:35.467Z,4.66
2022-11-21T14:56:02.063Z,4.73
2022-11-21T14:58:28.420Z,4.57
2022-11-21T15:01:08.482Z,4.74
2022-11-21T15:03:34.840Z,4.66
2022-11-21T15:06:05.639Z,4.60
2022-11-21T15:09:10.295Z,4.78
2022-11-21T15:11:19.085Z,4.74
2022-11-21T15:14:12.408Z,4.57
2022-11-21T15:16:32.375Z,4.56
2022-11-21T15:18:58.792Z,4.40
2022-11-21T15:21:25.084Z,4.54
2022-11-21T15:23:51.546Z,4.39
2022-11-21T15:26:47.603Z,4.52
2022-11-21T15:32:06.883Z,4.42
2022-11-21T15:37:22.350Z,4.53
2022-11-21T15:39:49.827Z,4.38
2022-11-21T15:42:31.519Z,4.38
2022-11-21T15:45:01.125Z,4.37
2022-11-21T15:47:28.449Z,4.28
2022-11-21T15:49:54.895Z,4.16
2022-11-21T15:52:21.181Z,4.21
2022-11-21T15:54:48.244Z,3.98
2022-11-21T15:57:13.499Z,4.35
2022-11-21T15:57:16.738Z,4.17
2022-11-21T15:59:43.578Z,4.21
2022-11-21T16:02:11.296Z,4.08
2022-11-21T16:04:37.593Z,4.23
2022-11-21T16:07:03.998Z,3.95
2022-11-21T16:09:30.849Z,4.14
2022-11-21T16:11:57.297Z,4.09
2022-11-21T16:14:23.641Z,3.99
2022-11-21T16:16:49.927Z,4.03
2022-11-21T16:19:16.477Z,4.03
2022-11-21T16:21:42.777Z,4.07
2022-11-21T16:24:09.241Z,4.08
2022-11-21T16:26:35.742Z,3.96
2022-11-21T16:29:05.268Z,3.79
2022-11-21T16:31:31.749Z,3.87
2022-11-21T16:33:58.732Z,3.73
2022-11-21T16:36:25.792Z,3.81
2022-11-21T16:38:52.195Z,3.67
2022-11-21T16:41:21.999Z,3.63
2022-11-21T16:43:49.801Z,3.77
2022-11-21T16:46:16.453Z,3.56
2022-11-21T16:48:42.895Z,3.59
2022-11-21T16:51:15.466Z,3.63
2022-11-21T16:53:41.817Z,3.67
2022-11-21T16:56:08.367Z,3.52
2022-11-21T16:58:38.125Z,3.38
2022-11-21T17:01:08.406Z,3.33
2022-11-21T17:03:34.775Z,3.34
2022-11-21T17:06:01.222Z,3.54
2022-11-21T17:08:27.917Z,3.33
2022-11-21T17:10:54.504Z,3.15
2022-11-21T17:13:20.870Z,3.10
2022-11-21T17:15:47.187Z,3.23
2022-11-21T17:18:13.473Z,3.05
2022-11-21T17:20:39.785Z,3.04
2022-11-21T17:23:06.087Z,3.04
2022-11-21T17:25:32.516Z,3.12
2022-11-21T17:27:58.827Z,3.14
2022-11-21T17:30:25.198Z,2.90
2022-11-21T17:32:51.565Z,2.98
2022-11-21T17:35:18.155Z,2.97
2022-11-21T17:37:44.433Z,2.90
2022-11-21T17:40:12.033Z,2.91
2022-11-21T17:42:40.613Z,3.02
2022-11-21T17:45:07.530Z,2.95
2022-11-21T17:47:34.027Z,2.89
2022-11-21T17:50:05.557Z,2.87
2022-11-21T17:52:32.581Z,2.96
2022-11-21T17:54:58.945Z,3.04
2022-11-21T17:57:25.228Z,2.81
2022-11-21T17:59:51.676Z,2.72
2022-11-21T18:02:18.241Z,2.76
2022-11-21T18:04:44.720Z,2.61
2022-11-21T18:07:11.111Z,2.74
2022-11-21T18:09:37.508Z,2.60
2022-11-21T18:12:03.833Z,2.58
2022-11-21T18:14:30.706Z,2.24
2022-11-21T18:16:57.094Z,2.41
2022-11-21T18:19:24.152Z,2.39
2022-11-21T18:21:51.698Z,2.14
2022-11-21T18:24:18.039Z,2.30
2022-11-21T18:26:44.366Z,2.37
2022-11-21T18:29:35.153Z,2.41
2022-11-21T18:31:56.959Z,2.43
2022-11-21T18:34:23.266Z,2.37
2022-11-21T18:36:49.596Z,2.09
2022-11-21T18:39:16.028Z,2.22
2022-11-21T18:41:42.630Z,1.92
2022-11-21T18:44:09.761Z,2.22
2022-11-21T18:46:36.223Z,2.32
2022-11-21T18:49:05.946Z,1.93
2022-11-21T18:51:32.668Z,2.10
2022-11-21T18:54:05.050Z,2.03
2022-11-21T18:56:31.340Z,1.89
2022-11-21T18:58:59.113Z,2.04
2022-11-21T19:01:26.884Z,2.01
2022-11-21T19:03:53.437Z,1.95
2022-11-21T19:06:21.019Z,1.88
2022-11-21T19:08:52.079Z,1.99
2022-11-21T19:11:20.055Z,2.10
2022-11-21T19:13:46.960Z,1.91
2022-11-21T19:16:17.407Z,1.82
2022-11-21T19:18:48.476Z,1.84
2022-11-21T19:21:21.754Z,1.56
2022-11-21T19:23:48.154Z,1.75
2022-11-21T19:26:15.296Z,1.55
2022-11-21T19:28:42.074Z,1.61
2022-11-21T19:31:10.600Z,1.60
2022-11-21T19:33:37.126Z,1.57
2022-11-21T19:36:16.786Z,1.61
2022-11-21T19:38:49.132Z,1.43
2022-11-21T19:41:18.410Z,1.62
2022-11-21T19:43:45.498Z,1.45
2022-11-21T19:46:12.562Z,1.44
2022-11-21T19:48:38.931Z,1.37
2022-11-21T19:51:05.345Z,1.31
2022-11-21T19:53:35.857Z,1.32
2022-11-21T19:56:13.067Z,1.38
2022-11-21T19:58:39.625Z,1.42
2022-11-21T20:01:07.182Z,1.30
2022-11-21T20:03:34.135Z,1.02
2022-11-21T20:06:07.856Z,1.16
2022-11-21T20:08:34.413Z,1.24
2022-11-21T20:11:10.302Z,1.13
2022-11-21T20:13:37.296Z,1.04
2022-11-21T20:16:03.765Z,0.98
2022-11-21T20:18:30.116Z,0.79
2022-11-21T20:20:56.421Z,1.02
2022-11-21T20:23:22.760Z,0.91
2022-11-21T20:25:49.641Z,0.80
2022-11-21T20:28:16.022Z,0.75
2022-11-21T20:30:43.325Z,0.79
2022-11-21T20:33:11.426Z,0.91
2022-11-21T20:35:39.186Z,0.72
2022-11-21T20:38:05.788Z,0.60
2022-11-21T20:40:32.241Z,0.79
2022-11-21T20:42:58.538Z,0.87
2022-11-21T20:46:07.080Z,0.69
2022-11-21T20:48:15.893Z,0.79
2022-11-21T20:51:59.613Z,0.78
2022-11-21T20:53:51.978Z,0.71
2022-11-21T20:56:19.524Z,0.75
2022-11-21T20:58:45.978Z,0.60
2022-11-21T21:01:12.859Z,0.64
2022-11-21T21:03:39.314Z,0.51
2022-11-21T21:06:07.294Z,0.46
2022-11-21T21:08:34.217Z,0.71
2022-11-21T21:11:06.683Z,0.50
2022-11-21T21:13:33.456Z,0.29
2022-11-21T21:16:26.418Z,0.49
2022-11-21T21:18:53.588Z,0.44
2022-11-21T21:21:21.111Z,0.21
2022-11-21T21:23:48.432Z,0.21
2022-11-21T21:26:14.664Z,0.27
2022-11-21T21:28:41.210Z,0.30
2022-11-21T21:31:08.201Z,0.45
2022-11-21T21:33:34.559Z,0.42
2022-11-21T21:36:05.315Z,0.40
2022-11-21T21:38:31.623Z,0.24
2022-11-21T21:40:57.918Z,0.35
2022-11-21T21:43:24.216Z,0.25
2022-11-21T21:45:50.841Z,0.36
2022-11-21T21:48:17.143Z,0.36
2022-11-21T21:50:43.439Z,0.33
2022-11-21T21:53:09.815Z,0.34
2022-11-21T21:55:36.100Z,0.35
2022-11-21T21:58:02.404Z,0.43
2022-11-21T22:00:28.850Z,0.37
2022-11-21T22:02:55.153Z,0.35
2022-11-21T22:05:21.432Z,0.36
2022-11-21T22:07:47.780Z,0.33
2022-11-21T22:10:14.146Z,0.24
2022-11-21T22:12:43.990Z,0.36
2022-11-21T22:15:10.668Z,0.19
2022-11-21T22:17:36.965Z,0.30
2022-11-21T22:20:03.494Z,0.11
2022-11-21T22:22:30.864Z,0.16
2022-11-21T22:24:57.197Z,0.29
2022-11-21T22:27:23.488Z,0.13
2022-11-21T22:29:49.785Z,0.23
2022-11-21T22:32:19.653Z,0.13
2022-11-21T22:34:46.677Z,0.21
2022-11-21T22:37:12.983Z,0.22
2022-11-21T22:39:39.453Z,-0.06
2022-11-21T22:42:05.749Z,0.19
2022-11-21T22:44:32.277Z,0.09
2022-11-21T22:46:58.749Z,-0.07
2022-11-21T22:49:25.057Z,-0.05
2022-11-21T22:51:51.344Z,0.05
2022-11-21T22:54:17.823Z,-0.22
2022-11-21T22:56:44.153Z,-0.11
2022-11-21T22:59:13.840Z,0.03
2022-11-21T23:01:40.227Z,0.19
2022-11-21T23:04:06.567Z,0.10
2022-11-21T23:06:33.122Z,0.06
2022-11-21T23:08:59.418Z,0.09
2022-11-21T23:11:27.484Z,-0.04
2022-11-21T23:13:54.173Z,0.07
2022-11-21T23:16:21.096Z,-0.01
2022-11-21T23:18:47.587Z,0.04
2022-11-21T23:21:13.999Z,-0.07
2022-11-21T23:23:40.481Z,-0.05
2022-11-21T23:26:06.798Z,0.15
2022-11-21T23:28:33.398Z,0.18
2022-11-21T23:30:59.721Z,0.26
2022-11-21T23:33:26.040Z,0.15
2022-11-21T23:35:52.334Z,0.12
2022-11-21T23:38:18.625Z,0.06
2022-11-21T23:40:46.042Z,0.15
2022-11-21T23:43:12.761Z,0.20
2022-11-21T23:45:39.065Z,0.28
2022-11-21T23:48:08.421Z,0.19
2022-11-21T23:50:34.721Z,0.18
2022-11-21T23:53:01.105Z,0.24
2022-11-21T23:55:27.642Z,0.36
2022-11-21T23:57:53.940Z,0.31
